Time;durP1;ratioP1;P1;durP2;ratioP2;P2;SDS_P1;SDS_P2;PMS_P1;PMS_P2;Temp;Humidity;BMP_temperature;BMP_pressure;BME280_temperature;BME280_humidity;BME280_pressure;Samples;Min_cycle;Max_cycle;Signal;HPM_P1;HPM_P2
2022/04/29 00:01:08;;;;;;;7.75;4.78;;;;;;;13.23;52.40;101672.25;4194398;28;20064;-59
2022/04/29 00:03:13;;;;;;;7.75;4.85;;;;;;;13.21;52.82;101671.31;4193885;28;20033;-59
2022/04/29 00:05:17;;;;;;;;;;;;;;;13.05;53.08;101671.81;4193759;28;20052;-59
2022/04/29 00:07:28;;;;;;;7.15;4.50;;;;;;;13.03;53.77;101674.41;4190686;28;19943;-59
2022/04/29 00:09:31;;;;;;;7.57;5.15;;;;;;;12.99;53.66;101671.69;4192593;28;20063;-59
2022/04/29 00:11:34;;;;;;;7.97;5.63;;;;;;;13.00;53.29;101671.72;4193955;28;20123;-59
2022/04/29 00:13:37;;;;;;;8.55;5.35;;;;;;;13.03;53.00;101666.56;4194054;28;20381;-59
2022/04/29 00:15:40;;;;;;;8.57;5.50;;;;;;;13.11;53.73;101664.13;4194367;28;20046;-59
2022/04/29 00:17:44;;;;;;;9.80;5.18;;;;;;;13.14;53.63;101663.31;4208111;28;20036;-59
2022/04/29 00:19:46;;;;;;;7.53;5.25;;;;;;;13.09;53.79;101663.22;4209084;28;20047;-59
2022/04/29 00:21:51;;;;;;;13.00;6.38;;;;;;;13.21;53.08;101663.50;4194354;28;20048;-59
2022/04/29 00:23:54;;;;;;;12.18;6.50;;;;;;;13.25;52.61;101660.09;4196901;28;20051;-59
2022/04/29 00:25:56;;;;;;;10.65;6.85;;;;;;;13.31;52.07;101658.50;4191796;28;20505;-59
2022/04/29 00:27:59;;;;;;;9.52;5.95;;;;;;;13.33;51.96;101670.75;4193766;28;20044;-59
2022/04/29 00:30:03;;;;;;;9.25;5.53;;;;;;;13.35;52.30;101665.59;4191937;28;20044;-59
2022/04/29 00:32:07;;;;;;;9.38;5.97;;;;;;;13.36;51.90;101657.78;4193315;28;20051;-59
2022/04/29 00:34:10;;;;;;;9.00;5.80;;;;;;;13.38;51.59;101652.59;4192931;28;20060;-59
2022/04/29 00:36:14;;;;;;;9.27;5.82;;;;;;;13.36;52.64;101656.88;4191458;28;20054;-59
2022/04/29 00:38:18;;;;;;;7.10;5.37;;;;;;;13.34;52.34;101655.94;4190920;28;20086;-59
2022/04/29 00:40:23;;;;;;;6.93;5.35;;;;;;;13.35;52.89;101645.56;4190879;28;20287;-59
2022/04/29 00:42:27;;;;;;;7.13;4.78;;;;;;;13.32;54.20;101642.00;4194256;28;20040;-59
2022/04/29 00:44:30;;;;;;;14.05;5.45;;;;;;;13.30;53.79;101652.38;4193022;28;20392;-59
2022/04/29 00:46:37;;;;;;;8.63;5.22;;;;;;;13.27;53.22;101642.75;4192854;28;20039;-59
2022/04/29 00:48:40;;;;;;;12.77;6.15;;;;;;;13.26;53.31;101643.59;4193383;28;20044;-59
2022/04/29 00:50:44;;;;;;;9.20;5.60;;;;;;;13.23;54.74;101645.28;4192878;28;20032;-59
2022/04/29 00:52:50;;;;;;;10.00;6.18;;;;;;;13.19;54.14;101648.66;4194181;28;20434;-60
2022/04/29 00:54:58;;;;;;;8.20;5.97;;;;;;;13.16;53.40;101641.63;4192428;28;20120;-59
2022/04/29 00:57:06;;;;;;;8.30;5.75;;;;;;;13.17;54.08;101639.88;4208157;28;20071;-59
2022/04/29 00:59:15;;;;;;;8.63;5.80;;;;;;;13.16;54.06;101644.25;4194162;28;20111;-59
2022/04/29 01:01:20;;;;;;;9.23;5.50;;;;;;;13.14;54.48;101643.34;4216689;28;20028;-59
2022/04/29 01:03:25;;;;;;;9.90;5.60;;;;;;;13.13;54.01;101628.50;4172971;28;20041;-59
2022/04/29 01:05:28;;;;;;;;;;;;;;;12.98;54.79;101635.97;4192065;28;20059;-59
2022/04/29 01:07:31;;;;;;;11.07;6.93;;;;;;;13.07;53.75;101638.81;4194395;28;19921;-59
2022/04/29 01:09:34;;;;;;;11.07;7.25;;;;;;;13.10;53.60;101644.97;4189020;28;20566;-59
2022/04/29 01:11:40;;;;;;;7.95;5.88;;;;;;;13.16;53.59;101633.81;4175947;28;20069;-59
2022/04/29 01:13:43;;;;;;;11.65;6.88;;;;;;;13.14;53.52;101643.34;4192856;28;20124;-59
2022/04/29 01:15:46;;;;;;;7.13;5.25;;;;;;;13.13;54.38;101641.56;4192878;28;20572;-59
2022/04/29 01:17:51;;;;;;;10.13;6.40;;;;;;;13.13;54.89;101646.78;4192312;28;20036;-60
2022/04/29 01:19:54;;;;;;;;;;;;;;;12.90;55.83;101638.41;4192721;28;20043;-60
2022/04/29 01:22:01;;;;;;;8.70;4.97;;;;;;;12.97;55.73;101642.06;4193690;28;19927;-59
2022/04/29 01:24:05;;;;;;;7.45;5.65;;;;;;;12.97;55.72;101629.03;4191398;28;20087;-59
2022/04/29 01:26:10;;;;;;;9.27;5.97;;;;;;;13.00;55.61;101642.13;4177261;28;20053;-59
2022/04/29 01:28:13;;;;;;;9.32;5.70;;;;;;;12.93;55.40;101636.75;4193369;28;20503;-59
2022/04/29 01:30:19;;;;;;;7.38;5.82;;;;;;;12.88;56.26;101638.38;4184970;28;20095;-59
2022/04/29 01:32:24;;;;;;;9.50;6.10;;;;;;;12.82;56.09;101642.56;4191790;28;20037;-59
2022/04/29 01:34:29;;;;;;;7.60;5.50;;;;;;;12.80;56.50;101636.44;4176163;28;20181;-59
2022/04/29 01:36:33;;;;;;;7.53;5.50;;;;;;;12.77;56.46;101645.06;4174792;28;20042;-59
2022/04/29 01:38:37;;;;;;;8.02;5.50;;;;;;;12.71;56.59;101644.94;4208941;28;20463;-59
2022/04/29 01:40:41;;;;;;;8.45;5.82;;;;;;;12.61;56.77;101642.94;4192433;28;20033;-59
2022/04/29 01:42:49;;;;;;;8.52;5.90;;;;;;;12.51;56.91;101637.50;4192849;28;20036;-59
2022/04/29 01:44:52;;;;;;;8.80;6.15;;;;;;;12.45;56.80;101634.72;4197557;28;20145;-59
2022/04/29 01:46:56;;;;;;;8.25;5.97;;;;;;;12.42;57.28;101624.19;4191783;28;20127;-59
2022/04/29 01:49:15;;;;;;;9.48;6.47;;;;;;;12.39;56.69;101637.16;4191647;28;20044;-59
2022/04/29 01:51:25;;;;;;;8.82;6.50;;;;;;;12.38;57.49;101624.97;4192797;28;20044;-59
2022/04/29 01:53:30;;;;;;;9.70;6.28;;;;;;;12.38;57.64;101627.56;4193894;28;20048;-59
2022/04/29 01:55:35;;;;;;;10.32;6.68;;;;;;;12.32;57.21;101624.81;4192807;28;20037;-59
2022/04/29 01:57:39;;;;;;;8.48;6.45;;;;;;;12.28;57.99;101628.19;4176961;28;20116;-59
2022/04/29 01:59:42;;;;;;;8.93;6.45;;;;;;;12.16;58.03;101627.03;4216789;28;20032;-59
2022/04/29 02:01:57;;;;;;;11.60;7.40;;;;;;;12.14;57.32;101627.84;4192232;28;20036;-59
2022/04/29 02:04:00;;;;;;;11.32;7.38;;;;;;;12.16;57.95;101623.53;4195068;28;20143;-59
2022/04/29 02:06:04;;;;;;;11.80;8.02;;;;;;;12.11;57.93;101615.59;4197019;28;20045;-59
2022/04/29 02:08:09;;;;;;;8.85;6.45;;;;;;;12.07;58.09;101620.69;4195868;28;20063;-59
2022/04/29 02:10:15;;;;;;;13.02;7.20;;;;;;;12.12;58.23;101619.97;4222533;28;20418;-59
2022/04/29 02:12:20;;;;;;;9.47;6.90;;;;;;;12.13;57.40;101624.31;4190963;28;20090;-59
2022/04/29 02:14:33;;;;;;;7.95;6.38;;;;;;;12.14;57.59;101620.88;4195817;28;20064;-59
2022/04/29 02:16:36;;;;;;;8.48;6.78;;;;;;;12.14;57.63;101620.00;4195729;28;20041;-59
2022/04/29 02:18:39;;;;;;;9.77;7.10;;;;;;;12.12;57.09;101622.59;4194269;28;20032;-59
2022/04/29 02:20:43;;;;;;;13.70;8.27;;;;;;;12.11;57.17;101615.59;4194836;28;20044;-59
2022/04/29 02:22:46;;;;;;;11.27;6.88;;;;;;;12.08;57.95;101615.50;4194694;28;20044;-59
2022/04/29 02:24:49;;;;;;;11.85;7.68;;;;;;;12.12;58.02;101614.75;4193063;28;20489;-59
2022/04/29 02:26:52;;;;;;;9.00;7.03;;;;;;;12.12;58.19;101616.47;4194366;28;20036;-59
2022/04/29 02:28:56;;;;;;;9.65;7.40;;;;;;;12.13;57.83;101616.50;4194519;28;20033;-59
2022/04/29 02:31:00;;;;;;;13.57;8.60;;;;;;;12.08;57.07;101620.72;4194380;28;20040;-59
2022/04/29 02:33:03;;;;;;;9.05;7.47;;;;;;;11.98;58.17;101619.59;4211606;28;20082;-59
2022/04/29 02:35:07;;;;;;;10.55;8.25;;;;;;;11.95;57.95;101616.03;4208378;28;20032;-59
2022/04/29 02:37:10;;;;;;;11.43;7.75;;;;;;;11.96;57.54;101621.28;4209488;28;20040;-59
2022/04/29 02:39:13;;;;;;;10.25;7.40;;;;;;;12.00;57.40;101612.72;4210894;28;20646;-59
2022/04/29 02:41:18;;;;;;;11.27;7.38;;;;;;;12.03;58.19;101614.50;4195167;28;20087;-59
2022/04/29 02:43:25;;;;;;;12.68;8.35;;;;;;;12.08;57.06;101612.03;4195031;28;20083;-59
2022/04/29 02:45:29;;;;;;;13.18;8.48;;;;;;;12.08;57.59;101612.91;4178321;28;20037;-60
2022/04/29 02:47:32;;;;;;;10.93;7.72;;;;;;;12.05;58.02;101610.22;4195166;28;20566;-59
2022/04/29 02:49:35;;;;;;;12.43;7.88;;;;;;;12.04;58.47;101608.44;4194671;28;20535;-59
2022/04/29 02:51:38;;;;;;;8.75;6.93;;;;;;;12.03;58.20;101606.69;4194131;28;20029;-59
2022/04/29 02:53:41;;;;;;;12.02;7.78;;;;;;;12.01;59.16;101605.75;4195689;28;20043;-59
2022/04/29 02:55:43;;;;;;;11.57;8.18;;;;;;;11.94;59.49;101611.66;4194805;28;20540;-59
2022/04/29 02:58:11;;;;;;;11.60;7.18;;;;;;;11.82;60.45;101606.97;4211334;28;20036;-59
2022/04/29 03:00:16;;;;;;;10.60;7.45;;;;;;;11.82;60.10;101605.22;4194029;28;20159;-60
2022/04/29 03:02:20;;;;;;;9.38;7.40;;;;;;;11.79;60.10;101607.75;4194167;28;20047;-59
2022/04/29 03:04:23;;;;;;;14.75;7.78;;;;;;;11.70;59.75;101608.38;4192107;28;20036;-59
2022/04/29 03:06:27;;;;;;;14.07;8.48;;;;;;;11.71;60.02;101609.28;4195023;28;20032;-59
2022/04/29 03:08:30;;;;;;;11.90;8.52;;;;;;;11.62;60.62;101609.00;4193065;28;20036;-59
2022/04/29 03:10:33;;;;;;;15.30;8.63;;;;;;;11.57;59.55;101600.19;4194549;28;20471;-59
2022/04/29 03:12:36;;;;;;;13.27;8.95;;;;;;;11.53;59.71;101591.38;4194038;28;20119;-59
2022/04/29 03:14:47;;;;;;;14.50;9.43;;;;;;;11.50;60.18;101594.78;4194524;28;20086;-59
2022/04/29 03:16:50;;;;;;;11.63;8.48;;;;;;;11.51;59.82;101604.38;4193935;28;20447;-59
2022/04/29 03:18:55;;;;;;;15.05;10.00;;;;;;;11.52;59.48;101606.13;4193949;28;20087;-59
2022/04/29 03:20:58;;;;;;;13.32;10.23;;;;;;;11.49;60.48;101603.44;4208990;28;20074;-59
2022/04/29 03:23:01;;;;;;;14.93;10.25;;;;;;;11.55;60.00;101601.84;4192513;28;20058;-59
2022/04/29 03:25:06;;;;;;;16.98;10.23;;;;;;;11.58;60.46;101605.44;4194832;28;20491;-59
2022/04/29 03:27:09;;;;;;;13.90;9.32;;;;;;;11.61;59.60;101602.00;4194000;28;20527;-59
2022/04/29 03:29:11;;;;;;;12.70;9.30;;;;;;;11.60;60.92;101601.13;4193395;28;20549;-59
2022/04/29 03:31:14;;;;;;;13.30;9.85;;;;;;;11.63;60.18;101595.13;4215676;28;20036;-59
2022/04/29 03:33:44;;;;;;;12.73;10.32;;;;;;;11.61;60.60;101607.22;4192676;28;20048;-59
2022/04/29 03:35:50;;;;;;;15.40;9.60;;;;;;;11.70;60.30;101607.50;4193943;28;20431;-59
2022/04/29 03:38:02;;;;;;;12.10;9.57;;;;;;;11.69;59.71;101596.19;4194107;28;20037;-59
2022/04/29 03:40:06;;;;;;;14.02;10.02;;;;;;;11.71;60.40;101598.84;4192676;28;20123;-60
2022/04/29 03:42:10;;;;;;;13.63;9.55;;;;;;;11.72;59.93;101603.19;4193101;28;20098;-59
2022/04/29 03:44:13;;;;;;;14.77;9.38;;;;;;;11.70;60.89;101603.16;4195814;28;20132;-59
2022/04/29 03:46:17;;;;;;;16.63;10.63;;;;;;;11.68;60.25;101602.25;4202542;28;20042;-59
2022/04/29 03:51:23;;;;;;;15.02;9.95;;;;;;;11.62;61.01;101603.78;4194269;28;20079;-59
2022/04/29 03:53:26;;;;;;;13.40;8.63;;;;;;;11.57;61.21;101603.66;4193173;28;20032;-59
2022/04/29 03:55:36;;;;;;;15.70;11.48;;;;;;;11.54;61.37;101611.38;4209221;28;20036;-59
2022/04/29 03:57:39;;;;;;;18.58;10.80;;;;;;;11.57;60.97;101610.59;4193707;28;20049;-58
2022/04/29 03:59:42;;;;;;;14.70;8.98;;;;;;;11.59;61.82;101607.19;4194120;28;20127;-59
2022/04/29 04:01:45;;;;;;;13.73;9.43;;;;;;;11.60;61.80;101605.47;4209279;28;20036;-59
2022/04/29 04:03:49;;;;;;;13.63;10.77;;;;;;;11.63;60.88;101601.22;4176490;28;20051;-59
2022/04/29 04:08:11;;;;;;;15.35;11.05;;;;;;;11.67;60.54;101604.81;4192623;28;20423;-59
2022/04/29 04:10:20;;;;;;;15.35;10.90;;;;;;;11.70;59.56;101605.78;4192870;28;20123;-59
2022/04/29 04:12:24;;;;;;;15.35;9.55;;;;;;;11.71;60.38;101604.06;4193021;28;20131;-59
2022/04/29 04:14:45;;;;;;;14.07;9.75;;;;;;;11.65;61.68;101602.16;4192524;28;20032;-59
2022/04/29 04:16:49;;;;;;;14.45;9.57;;;;;;;11.61;61.15;101607.22;4198017;28;20534;-59
2022/04/29 04:18:52;;;;;;;16.73;9.60;;;;;;;11.52;62.34;101603.53;4193314;28;20036;-59
2022/04/29 04:20:55;;;;;;;12.43;9.23;;;;;;;11.47;62.79;101602.50;4208476;28;20042;-59
2022/04/29 04:22:57;;;;;;;13.82;10.23;;;;;;;11.38;62.73;101604.84;4192522;28;20048;-59
2022/04/29 04:25:02;;;;;;;12.48;9.05;;;;;;;11.33;62.50;101609.94;4193073;28;20043;-59
2022/04/29 04:27:06;;;;;;;13.23;9.90;;;;;;;11.31;62.51;101605.50;4208777;28;20478;-60
2022/04/29 04:29:09;;;;;;;13.30;10.95;;;;;;;11.35;62.21;101604.75;4174377;28;20045;-59
2022/04/29 04:31:21;;;;;;;14.10;10.35;;;;;;;11.34;63.01;101605.59;4189318;28;20043;-59
2022/04/29 04:33:29;;;;;;;14.27;11.65;;;;;;;11.31;62.90;101608.09;4191696;28;20048;-59
2022/04/29 04:35:32;;;;;;;17.05;12.90;;;;;;;11.36;62.60;101609.16;4194015;28;20082;-59
2022/04/29 04:37:35;;;;;;;14.95;11.68;;;;;;;11.38;62.11;101606.59;4193296;28;20056;-59
2022/04/29 04:39:39;;;;;;;15.82;11.50;;;;;;;11.45;61.25;101606.78;4223887;28;20027;-59
2022/04/29 04:41:48;;;;;;;15.52;11.63;;;;;;;11.51;62.13;101606.09;4174473;28;20455;-59
2022/04/29 04:43:57;;;;;;;15.15;10.13;;;;;;;11.53;62.07;101617.44;4193468;28;20047;-59
2022/04/29 04:46:03;;;;;;;14.57;10.60;;;;;;;11.52;63.23;101615.66;4193901;28;20064;-59
2022/04/29 04:48:15;;;;;;;14.95;11.80;;;;;;;11.55;62.94;101617.47;4193601;28;20051;-59
2022/04/29 04:50:53;;;;;;;18.58;12.80;;;;;;;11.52;61.80;101619.16;4192922;28;20090;-59
2022/04/29 04:52:57;;;;;;;22.42;13.85;;;;;;;11.63;61.27;101626.41;4175834;28;20135;-59
2022/04/29 04:55:04;;;;;;;15.88;12.30;;;;;;;11.69;61.47;101627.44;4192161;28;20059;-59
2022/04/29 04:57:09;;;;;;;13.77;9.98;;;;;;;11.70;62.20;101628.34;4208778;28;20032;-59
2022/04/29 04:59:12;;;;;;;15.30;11.82;;;;;;;11.69;62.80;101629.16;4208734;28;20086;-59
2022/04/29 05:01:16;;;;;;;17.75;12.10;;;;;;;11.63;62.80;101627.28;4196839;28;20082;-59
2022/04/29 13:04:26;;;;;;;8.05;3.50;;;;;;;20.71;32.02;101379.31;4115748;28;20090;-58
2022/04/29 13:06:59;;;;;;;21.45;4.38;;;;;;;20.44;31.32;101383.13;4114084;28;20490;-58
2022/04/29 13:09:04;;;;;;;8.60;4.97;;;;;;;20.50;31.36;101378.66;4115382;28;20501;-59
2022/04/29 13:11:16;;;;;;;8.32;4.20;;;;;;;20.72;30.81;101370.47;4115029;28;20476;-58
2022/04/29 13:13:20;;;;;;;9.77;4.68;;;;;;;20.76;31.10;101372.19;4115354;28;20070;-61
2022/04/29 13:15:23;;;;;;;10.80;6.13;;;;;;;20.86;30.80;101372.94;4122127;28;20493;-60
2022/04/29 13:17:26;;;;;;;7.38;5.05;;;;;;;20.79;31.17;101368.63;4113322;28;20129;-57
2022/04/29 13:19:29;;;;;;;14.73;6.30;;;;;;;20.70;31.17;101362.56;4125539;28;20039;-60
2022/04/29 13:21:32;;;;;;;11.75;5.25;;;;;;;20.88;32.36;101364.09;4128290;28;20583;-59
2022/04/29 13:23:40;;;;;;;10.18;5.57;;;;;;;20.72;31.82;101354.63;4139794;28;20077;-58
2022/04/29 13:25:49;;;;;;;7.82;4.65;;;;;;;20.45;32.74;101356.72;4140338;28;20455;-58
2022/04/29 13:27:53;;;;;;;8.00;5.28;;;;;;;20.40;32.90;101355.91;4108957;28;20039;-60
2022/04/29 13:29:56;;;;;;;7.93;4.53;;;;;;;20.24;33.78;101347.28;4124900;28;20081;-59
2022/04/29 13:31:59;;;;;;;11.35;5.22;;;;;;;20.11;33.91;101348.31;4125131;28;20069;-60
2022/04/29 13:34:02;;;;;;;7.65;4.75;;;;;;;20.09;33.80;101343.03;4122365;28;20161;-69
2022/04/29 13:36:11;;;;;;;8.93;5.80;;;;;;;20.26;32.96;101334.06;4125253;28;20042;-64
2022/04/29 13:38:14;;;;;;;7.60;4.97;;;;;;;20.13;33.43;101338.63;4128299;28;20042;-63
2022/04/29 13:40:18;;;;;;;6.60;4.15;;;;;;;20.04;34.13;101337.81;4128599;28;20070;-63
2022/04/29 13:42:21;;;;;;;11.98;5.00;;;;;;;20.10;33.45;101334.22;4122175;28;20042;-61
2022/04/29 13:44:24;;;;;;;7.93;4.65;;;;;;;20.15;33.75;101324.50;4125078;28;20097;-61
2022/04/29 13:46:27;;;;;;;5.88;3.83;;;;;;;20.09;33.17;101321.91;4122307;28;20053;-61
2022/04/29 13:48:30;;;;;;;7.63;4.70;;;;;;;20.25;33.52;101322.63;4127223;28;20516;-62
2022/04/29 13:50:34;;;;;;;11.30;4.82;;;;;;;20.31;33.35;101313.75;4128084;28;20038;-66
2022/04/29 13:54:57;;;;;;;7.47;3.80;;;;;;;20.40;33.45;101318.94;4123041;28;20358;-68
2022/04/29 13:57:01;;;;;;;9.00;3.88;;;;;;;20.40;33.17;101319.78;4135904;28;20066;-68
2022/04/29 13:59:04;;;;;;;10.00;4.32;;;;;;;20.46;33.44;101316.19;4130439;28;20173;-68
2022/04/29 14:01:07;;;;;;;7.00;3.60;;;;;;;20.57;33.19;101318.69;4129504;28;20520;-68
2022/04/29 14:03:11;;;;;;;5.78;3.95;;;;;;;20.61;31.79;101316.91;4146206;28;20492;-67
2022/04/29 14:05:14;;;;;;;5.75;3.58;;;;;;;20.50;32.35;101307.34;4132883;28;20402;-68
2022/04/29 14:07:17;;;;;;;9.52;3.47;;;;;;;20.52;32.48;101310.84;4129469;28;20042;-68
2022/04/29 14:09:20;;;;;;;8.25;5.00;;;;;;;20.90;31.72;101306.78;4132079;28;20117;-68
2022/04/29 14:11:23;;;;;;;5.25;3.50;;;;;;;20.75;32.76;101302.63;4138244;28;20034;-68
2022/04/29 14:13:28;;;;;;;7.13;3.83;;;;;;;20.98;33.01;101305.81;4132308;28;20042;-68
2022/04/29 14:15:31;;;;;;;5.90;3.08;;;;;;;20.84;32.59;101304.25;4130149;28;20074;-68
2022/04/29 14:17:35;;;;;;;5.63;3.63;;;;;;;20.84;32.42;101292.81;4127857;28;20053;-68
2022/04/29 14:19:38;;;;;;;4.40;3.28;;;;;;;20.78;32.68;101301.72;4133415;28;20392;-68
2022/04/29 14:21:42;;;;;;;6.18;3.45;;;;;;;21.02;31.60;101302.22;4130167;28;20038;-68
2022/04/29 14:23:45;;;;;;;9.18;3.58;;;;;;;21.18;31.65;101293.13;4132717;28;20113;-69
2022/04/29 14:25:48;;;;;;;4.68;3.33;;;;;;;21.35;30.91;101299.91;4131856;28;20121;-69
2022/04/29 14:27:51;;;;;;;7.38;3.35;;;;;;;21.12;31.96;101298.53;4128127;28;20035;-69
2022/04/29 14:29:55;;;;;;;6.57;4.15;;;;;;;21.20;30.82;101283.44;4123408;28;20056;-68
2022/04/29 14:31:59;;;;;;;5.28;3.67;;;;;;;21.03;31.50;101285.47;4142102;28;20092;-68
2022/04/29 14:34:01;;;;;;;6.72;3.50;;;;;;;20.93;31.17;101288.25;4130764;28;20042;-68
2022/04/29 14:36:05;;;;;;;6.38;3.22;;;;;;;20.84;31.47;101280.47;4132069;28;20046;-68
2022/04/29 14:38:08;;;;;;;6.67;4.07;;;;;;;20.88;31.09;101283.91;4129344;28;20039;-68
2022/04/29 14:40:12;;;;;;;7.55;3.33;;;;;;;20.81;32.06;101283.16;4130297;28;20298;-69
2022/04/29 14:42:14;;;;;;;4.55;2.80;;;;;;;20.93;31.50;101277.66;4131126;28;20054;-69
2022/04/29 14:44:17;;;;;;;6.53;3.17;;;;;;;20.86;32.22;101269.88;4127525;28;20137;-68
2022/04/29 14:46:22;;;;;;;5.45;3.58;;;;;;;20.95;31.19;101271.50;4131462;28;20038;-68
2022/04/29 14:48:25;;;;;;;;;;;;;;;20.71;31.60;101271.84;4140458;28;20046;-67
2022/04/29 14:50:30;;;;;;;6.57;3.22;;;;;;;20.67;31.41;101264.84;4128851;28;19929;-68
2022/04/29 14:52:33;;;;;;;9.10;3.28;;;;;;;20.70;31.09;101266.59;4131208;28;20137;-68
2022/04/29 14:54:40;;;;;;;7.32;3.50;;;;;;;20.49;31.75;101263.31;4131591;28;20053;-68
2022/04/29 14:56:43;;;;;;;4.82;3.40;;;;;;;20.44;31.91;101264.28;4131034;28;20121;-67
2022/04/29 14:58:46;;;;;;;8.75;3.20;;;;;;;20.43;32.04;101274.00;4131361;28;20477;-68
2022/04/29 15:00:49;;;;;;;5.65;3.05;;;;;;;20.49;31.75;101270.38;4130503;28;20042;-68
2022/04/29 15:02:53;;;;;;;6.07;3.92;;;;;;;20.43;31.45;101279.28;4130998;28;20042;-68
2022/04/29 15:04:56;;;;;;;5.68;3.50;;;;;;;20.28;32.12;101271.53;4132303;28;20034;-69
2022/04/29 15:06:59;;;;;;;6.10;3.35;;;;;;;20.30;32.48;101264.50;4130390;28;20030;-67
2022/04/29 15:16:08;;;;;;;8.30;3.40;;;;;;;20.38;32.85;101263.50;4118835;28;20050;-68
2022/04/29 15:18:16;;;;;;;8.63;3.15;;;;;;;20.66;32.27;101257.84;4108979;28;20050;-68
2022/04/29 15:20:19;;;;;;;12.88;3.78;;;;;;;20.77;31.78;101254.16;4130777;28;20121;-68
2022/04/29 15:22:24;;;;;;;10.27;4.10;;;;;;;20.77;32.21;101262.97;4130619;28;20386;-68
2022/04/29 15:24:27;;;;;;;5.72;3.50;;;;;;;20.80;31.35;101260.25;4125832;28;20132;-67
2022/04/29 15:26:30;;;;;;;11.35;3.50;;;;;;;20.93;31.32;101261.81;4133108;28;20125;-67
2022/04/29 15:28:33;;;;;;;5.40;3.67;;;;;;;20.93;31.18;101253.88;4145758;28;20169;-69
2022/04/29 15:30:45;;;;;;;10.40;3.92;;;;;;;20.99;31.42;101246.75;4128677;28;20490;-68
2022/04/29 15:32:48;;;;;;;9.13;3.67;;;;;;;20.92;31.84;101252.16;4130305;28;20129;-67
2022/04/29 15:34:52;;;;;;;10.43;3.65;;;;;;;20.91;31.44;101244.25;4129511;28;20034;-68
2022/04/29 15:36:56;;;;;;;5.95;2.78;;;;;;;20.96;31.30;101246.81;4130589;28;20409;-68
2022/04/29 15:38:58;;;;;;;7.20;4.00;;;;;;;21.10;30.99;101248.31;4130425;28;20490;-68
2022/04/29 15:41:02;;;;;;;4.75;3.20;;;;;;;21.08;30.39;101244.84;4128840;28;20038;-68
2022/04/29 15:43:10;;;;;;;6.13;3.55;;;;;;;21.09;31.01;101240.41;4129065;28;20038;-68
2022/04/29 15:45:14;;;;;;;4.25;2.78;;;;;;;20.93;30.97;101239.81;4129964;28;20109;-68
2022/04/29 15:47:17;;;;;;;;;;;;;;;20.72;31.81;101241.91;4131832;28;20405;-68
2022/04/29 15:49:20;;;;;;;6.95;3.00;;;;;;;20.79;31.65;101241.78;4147280;28;20015;-68
2022/04/29 15:51:24;;;;;;;6.45;3.60;;;;;;;20.79;31.33;101232.09;4128563;28;20041;-67
2022/04/29 15:53:29;;;;;;;4.10;2.50;;;;;;;20.73;31.64;101240.09;4129304;28;20038;-67
2022/04/29 15:55:34;;;;;;;5.75;3.00;;;;;;;20.57;32.25;101236.78;4121470;28;20505;-67
2022/04/29 15:57:37;;;;;;;11.05;3.33;;;;;;;20.61;32.32;101243.78;4131174;28;20042;-67
2022/04/29 15:59:40;;;;;;;4.10;2.88;;;;;;;20.70;31.42;101237.53;4137059;28;20034;-68
2022/04/29 16:01:44;;;;;;;5.70;2.92;;;;;;;20.65;31.43;101237.56;4128415;28;20038;-67
2022/04/29 16:03:49;;;;;;;4.40;3.17;;;;;;;20.66;31.20;101242.00;4142385;28;20046;-68
2022/04/29 16:05:55;;;;;;;7.18;3.20;;;;;;;20.60;31.47;101241.16;4132023;28;20112;-67
2022/04/29 16:08:01;;;;;;;5.38;3.10;;;;;;;20.64;31.68;101233.16;4130922;28;20062;-67
2022/04/29 16:10:06;;;;;;;4.88;2.88;;;;;;;20.65;31.42;101229.63;4131111;28;20092;-67
2022/04/29 16:12:10;;;;;;;5.13;3.03;;;;;;;20.56;31.17;101220.09;4131725;28;20137;-67
2022/04/29 16:14:13;;;;;;;4.72;2.65;;;;;;;20.51;31.66;101224.53;4131927;28;20074;-68
2022/04/29 16:16:17;;;;;;;5.93;3.38;;;;;;;20.62;31.27;101215.59;4130918;28;20054;-67
2022/04/29 16:20:46;;;;;;;5.18;3.03;;;;;;;20.42;31.99;101218.53;4133608;28;20042;-68
2022/04/29 16:27:33;;;;;;;3.20;2.67;;;;;;;20.42;31.60;101222.06;4131369;28;20038;-68
2022/04/29 16:29:37;;;;;;;4.72;2.90;;;;;;;20.37;31.39;101219.47;4131294;28;20076;-68
2022/04/29 16:31:40;;;;;;;9.23;3.35;;;;;;;20.32;31.98;101215.16;4119617;28;20763;-68
2022/04/29 16:33:43;;;;;;;8.07;2.83;;;;;;;20.43;31.40;101226.44;4129346;28;20133;-67
2022/04/29 16:35:46;;;;;;;4.55;2.95;;;;;;;20.25;31.41;101214.34;4130634;28;20121;-67
2022/04/29 16:37:50;;;;;;;5.10;3.10;;;;;;;20.20;31.62;101217.06;4127848;28;20577;-68
2022/04/29 16:39:53;;;;;;;5.90;2.67;;;;;;;20.21;31.93;101218.81;4127099;28;20046;-67
2022/04/29 16:41:57;;;;;;;7.43;3.33;;;;;;;20.22;31.72;101220.56;4128424;28;20073;-67
2022/04/29 16:44:00;;;;;;;6.03;3.00;;;;;;;20.21;31.81;101217.97;4132896;28;20062;-67
2022/04/29 16:46:04;;;;;;;7.20;2.70;;;;;;;20.21;31.62;101210.91;4130675;28;20412;-67
2022/04/29 16:48:08;;;;;;;4.07;2.45;;;;;;;20.16;31.51;101209.22;4125947;28;20046;-67
2022/04/29 16:50:11;;;;;;;4.25;2.78;;;;;;;20.20;31.86;101209.16;4130938;28;20580;-67
2022/04/29 16:52:13;;;;;;;6.68;2.80;;;;;;;20.23;31.77;101201.19;4121896;28;20424;-67
2022/04/29 16:54:16;;;;;;;5.57;2.85;;;;;;;20.20;31.93;101201.22;4125729;28;20042;-67
2022/04/29 16:56:19;;;;;;;4.25;2.47;;;;;;;20.30;31.49;101198.47;4129291;28;20045;-67
2022/04/29 17:00:45;;;;;;;5.93;3.30;;;;;;;20.28;30.92;101190.56;4134759;28;20041;-67
2022/04/29 17:02:47;;;;;;;5.53;3.00;;;;;;;20.12;31.86;101181.09;4131301;28;20497;-67
2022/04/29 17:04:52;;;;;;;15.65;3.35;;;;;;;20.06;32.26;101184.69;4130289;28;20088;-67
2022/04/29 17:06:55;;;;;;;3.63;2.75;;;;;;;20.07;32.45;101189.09;4128730;28;20125;-67
2022/04/29 17:08:58;;;;;;;4.72;3.10;;;;;;;20.19;31.92;101182.75;4126545;28;20102;-67
2022/04/29 17:11:01;;;;;;;4.72;3.00;;;;;;;20.03;32.06;101187.38;4130112;28;20521;-68
2022/04/29 17:13:04;;;;;;;5.03;2.53;;;;;;;19.97;32.36;101187.47;4123531;28;20039;-66
2022/04/29 17:15:09;;;;;;;5.28;3.17;;;;;;;20.04;31.94;101192.63;4129132;28;20042;-67
2022/04/29 17:17:13;;;;;;;6.05;2.85;;;;;;;20.03;32.94;101193.56;4131652;28;20038;-67
2022/04/29 17:19:16;;;;;;;5.78;2.80;;;;;;;20.01;32.70;101205.88;4128349;28;20042;-69
2022/04/29 17:21:19;;;;;;;5.05;2.90;;;;;;;19.90;32.84;101196.34;4124745;28;20062;-67
2022/04/29 17:23:23;;;;;;;5.03;2.63;;;;;;;19.88;33.08;101189.31;4111419;28;20058;-67
2022/04/29 17:25:27;;;;;;;5.97;2.75;;;;;;;19.90;32.78;101196.34;4123487;28;20137;-66
2022/04/29 17:27:30;;;;;;;5.07;2.78;;;;;;;20.08;32.06;101204.03;4129597;28;20093;-65
2022/04/29 17:29:34;;;;;;;6.95;2.65;;;;;;;19.77;32.60;101200.88;4129878;28;20130;-68
2022/04/29 17:31:39;;;;;;;4.22;2.40;;;;;;;19.72;32.96;101195.66;4139451;28;20046;-66
2022/04/29 17:33:42;;;;;;;;;;;;;;;19.58;33.44;101194.94;4136064;28;20521;-69
2022/04/29 17:35:46;;;;;;;5.38;3.35;;;;;;;19.74;32.23;101196.50;4139607;28;19972;-68
2022/04/29 17:37:49;;;;;;;8.07;4.80;;;;;;;19.78;31.90;101192.97;4133314;28;20034;-68
2022/04/29 17:42:29;;;;;;;5.55;3.30;;;;;;;19.57;32.85;101195.84;4131904;28;20049;-68
2022/04/29 17:44:31;;;;;;;9.07;3.13;;;;;;;19.49;33.12;101201.19;4133087;28;20065;-66
2022/04/29 17:46:52;;;;;;;4.75;2.53;;;;;;;19.53;33.00;101187.09;4132134;28;20038;-67
2022/04/29 17:48:55;;;;;;;8.32;4.72;;;;;;;19.56;33.00;101184.41;4133138;28;20062;-65
2022/04/29 17:50:59;;;;;;;12.43;3.53;;;;;;;19.52;33.61;101186.22;4139048;28;20038;-68
2022/04/29 17:53:03;;;;;;;6.67;3.77;;;;;;;19.48;33.42;101184.50;4150947;28;20042;-67
2022/04/29 17:55:07;;;;;;;7.50;3.40;;;;;;;19.45;33.57;101189.81;4145377;28;20285;-67
2022/04/29 17:57:10;;;;;;;7.03;4.38;;;;;;;19.43;33.61;101183.66;4138080;28;20049;-66
2022/04/29 17:59:13;;;;;;;4.45;2.85;;;;;;;19.41;33.82;101182.81;4133615;28;20046;-67
2022/04/29 18:01:16;;;;;;;9.80;4.22;;;;;;;19.48;33.44;101184.50;4129867;28;20125;-67
2022/04/29 18:03:21;;;;;;;6.47;3.33;;;;;;;19.42;33.73;101179.31;4138343;28;20046;-67
2022/04/29 18:05:26;;;;;;;6.30;3.38;;;;;;;19.43;33.52;101181.03;4149921;28;20049;-67